sensor_id;sensor_type;location;lat;lon;timestamp;P1;durP1;ratioP1;P2;durP2;ratioP2
5379;SDS011;2713;42.680;23.310;2023-11-21T00:02:20;24.63;;;14.60;;
5379;SDS011;2713;42.680;23.310;2023-11-21T00:04:48;21.27;;;14.73;;
5379;SDS011;2713;42.680;23.310;2023-11-21T00:07:15;24.60;;;14.37;;
5379;SDS011;2713;42.680;23.310;2023-11-21T00:09:42;20.37;;;13.90;;
5379;SDS011;2713;42.680;23.310;2023-11-21T00:12:09;20.40;;;14.17;;
5379;SDS011;2713;42.680;23.310;2023-11-21T00:14:36;23.00;;;14.63;;
5379;SDS011;2713;42.680;23.310;2023-11-21T00:17:03;24.13;;;14.27;;
5379;SDS011;2713;42.680;23.310;2023-11-21T00:19:30;22.20;;;14.43;;
5379;SDS011;2713;42.680;23.310;2023-11-21T00:21:58;23.10;;;14.37;;
5379;SDS011;2713;42.680;23.310;2023-11-21T00:24:25;22.50;;;13.50;;
5379;SDS011;2713;42.680;23.310;2023-11-21T00:26:52;24.23;;;14.40;;
5379;SDS011;2713;42.680;23.310;2023-11-21T00:29:19;23.73;;;15.13;;
5379;SDS011;2713;42.680;23.310;2023-11-21T00:31:46;18.50;;;14.00;;
5379;SDS011;2713;42.680;23.310;2023-11-21T00:34:12;22.47;;;13.93;;
5379;SDS011;2713;42.680;23.310;2023-11-21T00:36:39;20.47;;;14.00;;
5379;SDS011;2713;42.680;23.310;2023-11-21T00:39:08;20.77;;;14.17;;
5379;SDS011;2713;42.680;23.310;2023-11-21T00:41:35;20.43;;;14.40;;
5379;SDS011;2713;42.680;23.310;2023-11-21T00:44:02;21.90;;;13.90;;
5379;SDS011;2713;42.680;23.310;2023-11-21T00:46:29;23.53;;;15.60;;
5379;SDS011;2713;42.680;23.310;2023-11-21T00:48:56;20.80;;;14.60;;
5379;SDS011;2713;42.680;23.310;2023-11-21T00:51:23;21.97;;;15.27;;
5379;SDS011;2713;42.680;23.310;2023-11-21T00:53:50;20.17;;;14.80;;
5379;SDS011;2713;42.680;23.310;2023-11-21T00:56:18;21.43;;;15.10;;
5379;SDS011;2713;42.680;23.310;2023-11-21T00:58:45;24.10;;;15.30;;
5379;SDS011;2713;42.680;23.310;2023-11-21T01:01:15;25.53;;;16.30;;
5379;SDS011;2713;42.680;23.310;2023-11-21T01:03:42;23.37;;;16.00;;
5379;SDS011;2713;42.680;23.310;2023-11-21T01:06:09;26.10;;;16.50;;
5379;SDS011;2713;42.680;23.310;2023-11-21T01:08:36;24.77;;;15.90;;
5379;SDS011;2713;42.680;23.310;2023-11-21T01:11:03;24.47;;;15.33;;
5379;SDS011;2713;42.680;23.310;2023-11-21T01:13:34;19.53;;;15.43;;
5379;SDS011;2713;42.680;23.310;2023-11-21T01:16:01;23.30;;;15.30;;
5379;SDS011;2713;42.680;23.310;2023-11-21T01:18:29;24.10;;;17.03;;
5379;SDS011;2713;42.680;23.310;2023-11-21T01:20:55;21.07;;;15.90;;
5379;SDS011;2713;42.680;23.310;2023-11-21T01:23:22;25.63;;;16.93;;
5379;SDS011;2713;42.680;23.310;2023-11-21T01:25:49;20.80;;;14.93;;
5379;SDS011;2713;42.680;23.310;2023-11-21T01:28:17;21.90;;;14.90;;
5379;SDS011;2713;42.680;23.310;2023-11-21T01:30:46;23.30;;;15.60;;
5379;SDS011;2713;42.680;23.310;2023-11-21T01:33:12;19.97;;;15.27;;
5379;SDS011;2713;42.680;23.310;2023-11-21T01:35:41;23.60;;;16.20;;
5379;SDS011;2713;42.680;23.310;2023-11-21T01:38:08;23.30;;;15.10;;
5379;SDS011;2713;42.680;23.310;2023-11-21T01:40:35;23.47;;;15.90;;
5379;SDS011;2713;42.680;23.310;2023-11-21T01:43:01;23.27;;;16.47;;
5379;SDS011;2713;42.680;23.310;2023-11-21T01:45:28;23.70;;;16.43;;
5379;SDS011;2713;42.680;23.310;2023-11-21T01:47:57;26.17;;;17.80;;
5379;SDS011;2713;42.680;23.310;2023-11-21T01:50:25;24.53;;;17.87;;
5379;SDS011;2713;42.680;23.310;2023-11-21T01:52:53;22.00;;;15.40;;
5379;SDS011;2713;42.680;23.310;2023-11-21T01:55:22;25.80;;;16.17;;
5379;SDS011;2713;42.680;23.310;2023-11-21T01:57:48;26.10;;;17.10;;
5379;SDS011;2713;42.680;23.310;2023-11-21T02:00:16;29.27;;;18.17;;
5379;SDS011;2713;42.680;23.310;2023-11-21T02:02:44;34.13;;;18.80;;
5379;SDS011;2713;42.680;23.310;2023-11-21T02:05:13;30.63;;;19.87;;
5379;SDS011;2713;42.680;23.310;2023-11-21T02:07:43;37.53;;;20.93;;
5379;SDS011;2713;42.680;23.310;2023-11-21T02:10:13;33.40;;;22.10;;
5379;SDS011;2713;42.680;23.310;2023-11-21T02:12:40;37.80;;;23.17;;
5379;SDS011;2713;42.680;23.310;2023-11-21T02:15:08;37.37;;;24.00;;
5379;SDS011;2713;42.680;23.310;2023-11-21T02:17:41;36.20;;;23.53;;
5379;SDS011;2713;42.680;23.310;2023-11-21T02:20:09;32.93;;;21.73;;
5379;SDS011;2713;42.680;23.310;2023-11-21T02:22:43;35.70;;;22.20;;
5379;SDS011;2713;42.680;23.310;2023-11-21T02:25:12;34.30;;;22.00;;
5379;SDS011;2713;42.680;23.310;2023-11-21T02:27:39;34.47;;;23.27;;
5379;SDS011;2713;42.680;23.310;2023-11-21T02:30:07;35.73;;;23.07;;
5379;SDS011;2713;42.680;23.310;2023-11-21T02:32:37;39.47;;;23.40;;
5379;SDS011;2713;42.680;23.310;2023-11-21T02:35:05;35.43;;;22.50;;
5379;SDS011;2713;42.680;23.310;2023-11-21T02:37:33;38.77;;;21.90;;
5379;SDS011;2713;42.680;23.310;2023-11-21T02:40:00;35.77;;;22.23;;
5379;SDS011;2713;42.680;23.310;2023-11-21T02:42:30;37.00;;;23.07;;
5379;SDS011;2713;42.680;23.310;2023-11-21T02:44:57;38.33;;;23.77;;
5379;SDS011;2713;42.680;23.310;2023-11-21T02:47:24;35.43;;;22.30;;
5379;SDS011;2713;42.680;23.310;2023-11-21T02:49:51;37.40;;;24.10;;
5379;SDS011;2713;42.680;23.310;2023-11-21T02:52:18;36.40;;;21.70;;
5379;SDS011;2713;42.680;23.310;2023-11-21T02:54:46;38.03;;;23.57;;
5379;SDS011;2713;42.680;23.310;2023-11-21T02:57:13;33.43;;;22.80;;
5379;SDS011;2713;42.680;23.310;2023-11-21T02:59:41;36.00;;;23.20;;
5379;SDS011;2713;42.680;23.310;2023-11-21T03:02:07;36.60;;;22.60;;
5379;SDS011;2713;42.680;23.310;2023-11-21T03:04:34;34.07;;;22.47;;
5379;SDS011;2713;42.680;23.310;2023-11-21T03:07:01;37.67;;;21.70;;
5379;SDS011;2713;42.680;23.310;2023-11-21T03:09:29;31.33;;;21.10;;
5379;SDS011;2713;42.680;23.310;2023-11-21T03:11:55;34.83;;;21.20;;
5379;SDS011;2713;42.680;23.310;2023-11-21T03:14:22;28.90;;;20.70;;
5379;SDS011;2713;42.680;23.310;2023-11-21T03:16:50;33.43;;;21.50;;
5379;SDS011;2713;42.680;23.310;2023-11-21T03:19:17;33.00;;;21.10;;
5379;SDS011;2713;42.680;23.310;2023-11-21T03:21:44;36.13;;;20.13;;
5379;SDS011;2713;42.680;23.310;2023-11-21T03:24:11;38.20;;;21.60;;
5379;SDS011;2713;42.680;23.310;2023-11-21T03:26:38;38.30;;;22.20;;
5379;SDS011;2713;42.680;23.310;2023-11-21T03:29:04;35.30;;;21.70;;
5379;SDS011;2713;42.680;23.310;2023-11-21T03:31:31;34.23;;;21.73;;
5379;SDS011;2713;42.680;23.310;2023-11-21T03:33:59;36.23;;;22.07;;
5379;SDS011;2713;42.680;23.310;2023-11-21T03:36:26;33.07;;;21.43;;
5379;SDS011;2713;42.680;23.310;2023-11-21T03:38:53;31.93;;;20.60;;
5379;SDS011;2713;42.680;23.310;2023-11-21T03:41:21;30.07;;;20.70;;
5379;SDS011;2713;42.680;23.310;2023-11-21T03:43:48;30.13;;;20.30;;
5379;SDS011;2713;42.680;23.310;2023-11-21T03:46:15;29.33;;;19.30;;
5379;SDS011;2713;42.680;23.310;2023-11-21T03:48:42;27.30;;;18.30;;
5379;SDS011;2713;42.680;23.310;2023-11-21T03:51:10;27.37;;;17.13;;
5379;SDS011;2713;42.680;23.310;2023-11-21T03:53:37;22.47;;;15.07;;
5379;SDS011;2713;42.680;23.310;2023-11-21T03:56:06;19.70;;;14.73;;
5379;SDS011;2713;42.680;23.310;2023-11-21T03:58:33;22.20;;;14.47;;
5379;SDS011;2713;42.680;23.310;2023-11-21T04:01:00;23.00;;;14.57;;
5379;SDS011;2713;42.680;23.310;2023-11-21T04:03:27;20.80;;;13.93;;
5379;SDS011;2713;42.680;23.310;2023-11-21T04:05:53;19.67;;;14.23;;
5379;SDS011;2713;42.680;23.310;2023-11-21T04:08:21;22.60;;;15.10;;
5379;SDS011;2713;42.680;23.310;2023-11-21T04:10:48;19.70;;;13.60;;
5379;SDS011;2713;42.680;23.310;2023-11-21T04:13:15;21.00;;;14.27;;
5379;SDS011;2713;42.680;23.310;2023-11-21T04:15:42;20.67;;;14.90;;
5379;SDS011;2713;42.680;23.310;2023-11-21T04:18:09;20.47;;;15.17;;
5379;SDS011;2713;42.680;23.310;2023-11-21T04:20:36;23.50;;;15.07;;
5379;SDS011;2713;42.680;23.310;2023-11-21T04:23:03;22.57;;;15.40;;
5379;SDS011;2713;42.680;23.310;2023-11-21T04:25:31;24.03;;;14.70;;
5379;SDS011;2713;42.680;23.310;2023-11-21T04:27:58;26.27;;;15.30;;
5379;SDS011;2713;42.680;23.310;2023-11-21T04:30:24;24.10;;;15.70;;
5379;SDS011;2713;42.680;23.310;2023-11-21T04:32:51;24.93;;;15.57;;
5379;SDS011;2713;42.680;23.310;2023-11-21T04:35:18;21.73;;;14.93;;
5379;SDS011;2713;42.680;23.310;2023-11-21T04:37:45;20.33;;;14.63;;
5379;SDS011;2713;42.680;23.310;2023-11-21T04:40:12;24.67;;;15.30;;
5379;SDS011;2713;42.680;23.310;2023-11-21T04:42:40;24.07;;;16.70;;
5379;SDS011;2713;42.680;23.310;2023-11-21T04:45:07;28.43;;;17.90;;
5379;SDS011;2713;42.680;23.310;2023-11-21T04:47:36;26.50;;;18.20;;
5379;SDS011;2713;42.680;23.310;2023-11-21T04:50:04;27.20;;;18.40;;
5379;SDS011;2713;42.680;23.310;2023-11-21T04:52:32;31.50;;;17.67;;
5379;SDS011;2713;42.680;23.310;2023-11-21T04:54:59;26.07;;;17.13;;
5379;SDS011;2713;42.680;23.310;2023-11-21T04:57:26;31.03;;;17.23;;
5379;SDS011;2713;42.680;23.310;2023-11-21T04:59:55;26.13;;;17.27;;
5379;SDS011;2713;42.680;23.310;2023-11-21T05:02:22;23.40;;;17.07;;
5379;SDS011;2713;42.680;23.310;2023-11-21T05:04:49;27.63;;;16.90;;
5379;SDS011;2713;42.680;23.310;2023-11-21T05:07:16;27.70;;;16.93;;
5379;SDS011;2713;42.680;23.310;2023-11-21T05:09:43;26.20;;;16.27;;
5379;SDS011;2713;42.680;23.310;2023-11-21T05:12:11;30.23;;;18.57;;
5379;SDS011;2713;42.680;23.310;2023-11-21T05:14:38;29.23;;;18.33;;
5379;SDS011;2713;42.680;23.310;2023-11-21T05:17:06;27.50;;;17.83;;
5379;SDS011;2713;42.680;23.310;2023-11-21T05:19:33;27.60;;;19.30;;
5379;SDS011;2713;42.680;23.310;2023-11-21T05:22:01;24.70;;;18.47;;
5379;SDS011;2713;42.680;23.310;2023-11-21T05:24:28;28.53;;;18.30;;
5379;SDS011;2713;42.680;23.310;2023-11-21T05:26:55;27.03;;;18.60;;
5379;SDS011;2713;42.680;23.310;2023-11-21T05:29:23;25.33;;;17.40;;
5379;SDS011;2713;42.680;23.310;2023-11-21T05:31:50;26.53;;;17.97;;
5379;SDS011;2713;42.680;23.310;2023-11-21T05:34:19;26.80;;;16.40;;
5379;SDS011;2713;42.680;23.310;2023-11-21T05:36:49;26.27;;;17.00;;
5379;SDS011;2713;42.680;23.310;2023-11-21T05:39:16;33.10;;;17.90;;
5379;SDS011;2713;42.680;23.310;2023-11-21T05:41:44;32.43;;;18.67;;
5379;SDS011;2713;42.680;23.310;2023-11-21T05:44:10;25.20;;;17.90;;
5379;SDS011;2713;42.680;23.310;2023-11-21T05:46:39;25.77;;;16.07;;
5379;SDS011;2713;42.680;23.310;2023-11-21T05:49:08;30.13;;;17.37;;
5379;SDS011;2713;42.680;23.310;2023-11-21T05:51:36;25.50;;;16.63;;
5379;SDS011;2713;42.680;23.310;2023-11-21T05:54:04;27.97;;;16.53;;
5379;SDS011;2713;42.680;23.310;2023-11-21T05:56:31;25.70;;;18.10;;
5379;SDS011;2713;42.680;23.310;2023-11-21T05:58:57;29.03;;;18.70;;
5379;SDS011;2713;42.680;23.310;2023-11-21T06:01:25;27.43;;;17.77;;
5379;SDS011;2713;42.680;23.310;2023-11-21T06:03:53;30.87;;;18.37;;
5379;SDS011;2713;42.680;23.310;2023-11-21T06:06:20;28.47;;;18.93;;
5379;SDS011;2713;42.680;23.310;2023-11-21T06:08:51;26.37;;;17.70;;
5379;SDS011;2713;42.680;23.310;2023-11-21T06:11:18;25.87;;;17.00;;
5379;SDS011;2713;42.680;23.310;2023-11-21T06:13:45;25.10;;;17.40;;
5379;SDS011;2713;42.680;23.310;2023-11-21T06:16:13;27.27;;;18.67;;
5379;SDS011;2713;42.680;23.310;2023-11-21T06:18:41;25.03;;;18.10;;
5379;SDS011;2713;42.680;23.310;2023-11-21T06:21:09;28.97;;;19.13;;
5379;SDS011;2713;42.680;23.310;2023-11-21T06:23:36;36.97;;;19.03;;
5379;SDS011;2713;42.680;23.310;2023-11-21T06:26:04;27.70;;;18.77;;
5379;SDS011;2713;42.680;23.310;2023-11-21T06:28:31;32.20;;;20.17;;
5379;SDS011;2713;42.680;23.310;2023-11-21T06:30:58;32.60;;;21.20;;
5379;SDS011;2713;42.680;23.310;2023-11-21T06:33:30;30.20;;;21.20;;
5379;SDS011;2713;42.680;23.310;2023-11-21T06:35:57;30.10;;;20.17;;
5379;SDS011;2713;42.680;23.310;2023-11-21T06:38:24;31.00;;;21.97;;
5379;SDS011;2713;42.680;23.310;2023-11-21T06:40:53;33.67;;;22.60;;
5379;SDS011;2713;42.680;23.310;2023-11-21T06:43:21;33.40;;;22.20;;
5379;SDS011;2713;42.680;23.310;2023-11-21T06:45:48;37.67;;;22.07;;
5379;SDS011;2713;42.680;23.310;2023-11-21T06:48:14;42.90;;;23.23;;
5379;SDS011;2713;42.680;23.310;2023-11-21T06:50:41;31.30;;;21.70;;
5379;SDS011;2713;42.680;23.310;2023-11-21T06:53:08;30.83;;;21.37;;
5379;SDS011;2713;42.680;23.310;2023-11-21T06:55:35;33.20;;;22.67;;
5379;SDS011;2713;42.680;23.310;2023-11-21T06:58:02;32.20;;;20.30;;
5379;SDS011;2713;42.680;23.310;2023-11-21T07:00:31;35.20;;;20.57;;
5379;SDS011;2713;42.680;23.310;2023-11-21T07:02:58;32.30;;;20.83;;
5379;SDS011;2713;42.680;23.310;2023-11-21T07:05:25;37.27;;;21.43;;
5379;SDS011;2713;42.680;23.310;2023-11-21T07:07:52;28.30;;;19.03;;
5379;SDS011;2713;42.680;23.310;2023-11-21T07:10:19;27.27;;;17.80;;
5379;SDS011;2713;42.680;23.310;2023-11-21T07:12:46;34.23;;;20.83;;
5379;SDS011;2713;42.680;23.310;2023-11-21T07:15:13;31.80;;;18.83;;
5379;SDS011;2713;42.680;23.310;2023-11-21T07:17:41;27.87;;;20.40;;
5379;SDS011;2713;42.680;23.310;2023-11-21T07:20:09;29.33;;;19.60;;
5379;SDS011;2713;42.680;23.310;2023-11-21T07:22:37;32.50;;;19.37;;
5379;SDS011;2713;42.680;23.310;2023-11-21T07:25:04;27.00;;;19.40;;
5379;SDS011;2713;42.680;23.310;2023-11-21T07:27:32;24.93;;;19.00;;
5379;SDS011;2713;42.680;23.310;2023-11-21T07:30:01;27.60;;;18.63;;
5379;SDS011;2713;42.680;23.310;2023-11-21T07:32:29;26.53;;;18.33;;
5379;SDS011;2713;42.680;23.310;2023-11-21T07:34:58;24.60;;;16.53;;
5379;SDS011;2713;42.680;23.310;2023-11-21T07:37:26;24.33;;;16.40;;
5379;SDS011;2713;42.680;23.310;2023-11-21T07:39:53;24.77;;;16.60;;
5379;SDS011;2713;42.680;23.310;2023-11-21T07:42:21;24.63;;;16.67;;
5379;SDS011;2713;42.680;23.310;2023-11-21T07:44:48;20.70;;;16.40;;
5379;SDS011;2713;42.680;23.310;2023-11-21T07:47:15;19.63;;;14.80;;
5379;SDS011;2713;42.680;23.310;2023-11-21T07:49:42;21.50;;;14.37;;
5379;SDS011;2713;42.680;23.310;2023-11-21T07:52:11;23.83;;;15.27;;
5379;SDS011;2713;42.680;23.310;2023-11-21T07:54:38;24.03;;;14.37;;
5379;SDS011;2713;42.680;23.310;2023-11-21T07:57:05;18.17;;;14.20;;
5379;SDS011;2713;42.680;23.310;2023-11-21T07:59:31;18.93;;;13.60;;
5379;SDS011;2713;42.680;23.310;2023-11-21T08:01:58;19.10;;;14.20;;
5379;SDS011;2713;42.680;23.310;2023-11-21T08:04:25;19.70;;;13.87;;
5379;SDS011;2713;42.680;23.310;2023-11-21T08:06:52;18.90;;;13.77;;
5379;SDS011;2713;42.680;23.310;2023-11-21T08:09:20;18.07;;;13.53;;
5379;SDS011;2713;42.680;23.310;2023-11-21T08:11:49;19.90;;;13.70;;
5379;SDS011;2713;42.680;23.310;2023-11-21T08:14:17;17.33;;;11.53;;
5379;SDS011;2713;42.680;23.310;2023-11-21T08:16:43;14.70;;;11.77;;
5379;SDS011;2713;42.680;23.310;2023-11-21T08:19:10;22.10;;;13.90;;
5379;SDS011;2713;42.680;23.310;2023-11-21T08:21:37;24.10;;;13.60;;
5379;SDS011;2713;42.680;23.310;2023-11-21T08:24:05;17.63;;;13.60;;
5379;SDS011;2713;42.680;23.310;2023-11-21T08:26:37;17.57;;;14.77;;
5379;SDS011;2713;42.680;23.310;2023-11-21T08:29:04;23.13;;;14.40;;
5379;SDS011;2713;42.680;23.310;2023-11-21T08:31:32;17.40;;;13.17;;
5379;SDS011;2713;42.680;23.310;2023-11-21T08:33:59;19.53;;;13.40;;
5379;SDS011;2713;42.680;23.310;2023-11-21T08:36:27;18.90;;;13.50;;
5379;SDS011;2713;42.680;23.310;2023-11-21T08:38:54;20.00;;;14.40;;
5379;SDS011;2713;42.680;23.310;2023-11-21T08:41:20;17.87;;;13.23;;
5379;SDS011;2713;42.680;23.310;2023-11-21T08:43:49;15.20;;;11.43;;
5379;SDS011;2713;42.680;23.310;2023-11-21T08:46:16;13.83;;;10.70;;
5379;SDS011;2713;42.680;23.310;2023-11-21T08:48:43;14.93;;;11.87;;
5379;SDS011;2713;42.680;23.310;2023-11-21T08:51:10;16.37;;;11.50;;
5379;SDS011;2713;42.680;23.310;2023-11-21T08:53:39;16.77;;;13.47;;
5379;SDS011;2713;42.680;23.310;2023-11-21T08:56:06;15.10;;;13.20;;
5379;SDS011;2713;42.680;23.310;2023-11-21T08:58:34;15.37;;;12.60;;
5379;SDS011;2713;42.680;23.310;2023-11-21T09:01:04;18.17;;;13.07;;
5379;SDS011;2713;42.680;23.310;2023-11-21T09:03:32;21.43;;;14.30;;
5379;SDS011;2713;42.680;23.310;2023-11-21T09:06:00;24.10;;;17.90;;
5379;SDS011;2713;42.680;23.310;2023-11-21T09:08:27;28.60;;;17.47;;
5379;SDS011;2713;42.680;23.310;2023-11-21T09:10:54;25.50;;;18.50;;
5379;SDS011;2713;42.680;23.310;2023-11-21T09:13:21;29.83;;;21.63;;
5379;SDS011;2713;42.680;23.310;2023-11-21T09:15:59;26.20;;;20.50;;
5379;SDS011;2713;42.680;23.310;2023-11-21T09:18:33;33.30;;;21.90;;
5379;SDS011;2713;42.680;23.310;2023-11-21T09:21:12;27.13;;;21.30;;
5379;SDS011;2713;42.680;23.310;2023-11-21T09:23:44;29.23;;;20.37;;
5379;SDS011;2713;42.680;23.310;2023-11-21T09:28:13;25.77;;;19.13;;
5379;SDS011;2713;42.680;23.310;2023-11-21T09:33:43;29.97;;;19.57;;
5379;SDS011;2713;42.680;23.310;2023-11-21T09:36:13;30.23;;;21.60;;
5379;SDS011;2713;42.680;23.310;2023-11-21T09:38:40;23.70;;;20.40;;
5379;SDS011;2713;42.680;23.310;2023-11-21T09:41:10;26.80;;;20.60;;
5379;SDS011;2713;42.680;23.310;2023-11-21T09:43:43;35.20;;;25.00;;
5379;SDS011;2713;42.680;23.310;2023-11-21T09:46:12;35.07;;;24.60;;
5379;SDS011;2713;42.680;23.310;2023-11-21T09:48:47;34.43;;;24.83;;
5379;SDS011;2713;42.680;23.310;2023-11-21T09:51:18;37.37;;;27.30;;
5379;SDS011;2713;42.680;23.310;2023-11-21T09:53:47;36.67;;;28.60;;
5379;SDS011;2713;42.680;23.310;2023-11-21T09:56:17;41.73;;;30.80;;
5379;SDS011;2713;42.680;23.310;2023-11-21T09:58:50;39.60;;;29.10;;
5379;SDS011;2713;42.680;23.310;2023-11-21T10:01:18;47.37;;;29.53;;
5379;SDS011;2713;42.680;23.310;2023-11-21T10:03:48;48.00;;;29.07;;
5379;SDS011;2713;42.680;23.310;2023-11-21T10:06:15;39.60;;;28.77;;
5379;SDS011;2713;42.680;23.310;2023-11-21T10:08:44;44.77;;;31.37;;
5379;SDS011;2713;42.680;23.310;2023-11-21T10:11:13;44.53;;;29.97;;
5379;SDS011;2713;42.680;23.310;2023-11-21T10:13:41;43.23;;;29.20;;
5379;SDS011;2713;42.680;23.310;2023-11-21T10:16:11;31.90;;;25.80;;
5379;SDS011;2713;42.680;23.310;2023-11-21T10:37:04;40.10;;;26.43;;
5379;SDS011;2713;42.680;23.310;2023-11-21T10:39:38;35.20;;;25.53;;
5379;SDS011;2713;42.680;23.310;2023-11-21T10:42:07;37.53;;;25.30;;
5379;SDS011;2713;42.680;23.310;2023-11-21T10:44:37;32.20;;;24.43;;
5379;SDS011;2713;42.680;23.310;2023-11-21T10:47:03;32.43;;;23.20;;
5379;SDS011;2713;42.680;23.310;2023-11-21T10:49:30;27.80;;;20.93;;
5379;SDS011;2713;42.680;23.310;2023-11-21T10:51:57;27.60;;;21.07;;
5379;SDS011;2713;42.680;23.310;2023-11-21T10:54:25;27.03;;;20.20;;
5379;SDS011;2713;42.680;23.310;2023-11-21T10:56:53;29.83;;;21.33;;
5379;SDS011;2713;42.680;23.310;2023-11-21T10:59:24;29.53;;;21.60;;
5379;SDS011;2713;42.680;23.310;2023-11-21T11:01:54;30.40;;;22.67;;
5379;SDS011;2713;42.680;23.310;2023-11-21T11:04:27;35.90;;;24.20;;
5379;SDS011;2713;42.680;23.310;2023-11-21T11:06:54;24.53;;;19.80;;
5379;SDS011;2713;42.680;23.310;2023-11-21T11:09:23;29.20;;;20.10;;
5379;SDS011;2713;42.680;23.310;2023-11-21T11:11:52;33.80;;;20.40;;
5379;SDS011;2713;42.680;23.310;2023-11-21T11:14:19;30.77;;;22.67;;
5379;SDS011;2713;42.680;23.310;2023-11-21T11:16:50;28.70;;;22.00;;
5379;SDS011;2713;42.680;23.310;2023-11-21T11:19:19;30.47;;;21.93;;
5379;SDS011;2713;42.680;23.310;2023-11-21T11:21:48;27.40;;;20.60;;
5379;SDS011;2713;42.680;23.310;2023-11-21T11:24:32;34.23;;;21.40;;
5379;SDS011;2713;42.680;23.310;2023-11-21T11:27:18;30.80;;;21.17;;
5379;SDS011;2713;42.680;23.310;2023-11-21T11:29:54;27.70;;;20.77;;
5379;SDS011;2713;42.680;23.310;2023-11-21T11:32:33;25.40;;;19.17;;
5379;SDS011;2713;42.680;23.310;2023-11-21T11:35:07;28.30;;;21.17;;
5379;SDS011;2713;42.680;23.310;2023-11-21T11:37:42;32.90;;;23.20;;
5379;SDS011;2713;42.680;23.310;2023-11-21T11:40:10;34.07;;;23.53;;
5379;SDS011;2713;42.680;23.310;2023-11-21T11:42:39;34.73;;;21.87;;
5379;SDS011;2713;42.680;23.310;2023-11-21T11:45:17;34.50;;;22.70;;
5379;SDS011;2713;42.680;23.310;2023-11-21T11:47:45;29.33;;;19.00;;
5379;SDS011;2713;42.680;23.310;2023-11-21T11:50:14;24.10;;;19.03;;
5379;SDS011;2713;42.680;23.310;2023-11-21T11:52:43;31.53;;;19.70;;
5379;SDS011;2713;42.680;23.310;2023-11-21T11:55:14;30.40;;;19.33;;
5379;SDS011;2713;42.680;23.310;2023-11-21T11:57:45;28.77;;;20.67;;
5379;SDS011;2713;42.680;23.310;2023-11-21T12:00:14;31.13;;;22.60;;
5379;SDS011;2713;42.680;23.310;2023-11-21T12:02:46;28.37;;;21.27;;
5379;SDS011;2713;42.680;23.310;2023-11-21T12:05:14;25.70;;;20.67;;
5379;SDS011;2713;42.680;23.310;2023-11-21T12:07:46;28.63;;;20.60;;
5379;SDS011;2713;42.680;23.310;2023-11-21T12:10:15;29.80;;;19.83;;
5379;SDS011;2713;42.680;23.310;2023-11-21T12:12:48;25.80;;;18.37;;
5379;SDS011;2713;42.680;23.310;2023-11-21T12:15:17;26.27;;;18.67;;
5379;SDS011;2713;42.680;23.310;2023-11-21T12:17:45;29.83;;;19.83;;
5379;SDS011;2713;42.680;23.310;2023-11-21T12:20:12;26.00;;;18.47;;
5379;SDS011;2713;42.680;23.310;2023-11-21T12:22:43;29.30;;;21.07;;
5379;SDS011;2713;42.680;23.310;2023-11-21T12:25:14;33.83;;;20.30;;
5379;SDS011;2713;42.680;23.310;2023-11-21T12:27:44;35.60;;;22.80;;
5379;SDS011;2713;42.680;23.310;2023-11-21T12:30:13;35.63;;;23.60;;
5379;SDS011;2713;42.680;23.310;2023-11-21T12:32:41;36.83;;;24.90;;
5379;SDS011;2713;42.680;23.310;2023-11-21T12:35:09;32.70;;;23.07;;
5379;SDS011;2713;42.680;23.310;2023-11-21T12:37:36;34.60;;;23.07;;
5379;SDS011;2713;42.680;23.310;2023-11-21T12:40:05;37.43;;;23.20;;
5379;SDS011;2713;42.680;23.310;2023-11-21T12:42:33;33.33;;;22.90;;
5379;SDS011;2713;42.680;23.310;2023-11-21T12:45:10;32.33;;;23.63;;
5379;SDS011;2713;42.680;23.310;2023-11-21T12:47:45;34.07;;;22.50;;
5379;SDS011;2713;42.680;23.310;2023-11-21T12:50:13;36.90;;;21.93;;
5379;SDS011;2713;42.680;23.310;2023-11-21T12:52:41;36.80;;;22.23;;
5379;SDS011;2713;42.680;23.310;2023-11-21T12:55:13;31.50;;;21.03;;
5379;SDS011;2713;42.680;23.310;2023-11-21T12:57:44;29.60;;;20.60;;
5379;SDS011;2713;42.680;23.310;2023-11-21T13:00:12;29.40;;;20.07;;
5379;SDS011;2713;42.680;23.310;2023-11-21T13:02:53;33.10;;;21.20;;
5379;SDS011;2713;42.680;23.310;2023-11-21T13:05:26;27.40;;;19.40;;
5379;SDS011;2713;42.680;23.310;2023-11-21T13:07:54;27.33;;;18.50;;
5379;SDS011;2713;42.680;23.310;2023-11-21T13:10:23;30.50;;;19.17;;
5379;SDS011;2713;42.680;23.310;2023-11-21T13:12:55;27.70;;;20.87;;
5379;SDS011;2713;42.680;23.310;2023-11-21T13:15:23;25.77;;;19.00;;
5379;SDS011;2713;42.680;23.310;2023-11-21T13:17:50;25.60;;;18.27;;
5379;SDS011;2713;42.680;23.310;2023-11-21T13:20:20;25.90;;;18.23;;
5379;SDS011;2713;42.680;23.310;2023-11-21T13:22:48;24.50;;;17.23;;
5379;SDS011;2713;42.680;23.310;2023-11-21T13:25:15;30.60;;;17.70;;
5379;SDS011;2713;42.680;23.310;2023-11-21T13:27:45;25.83;;;16.30;;
5379;SDS011;2713;42.680;23.310;2023-11-21T13:30:13;22.73;;;16.30;;
5379;SDS011;2713;42.680;23.310;2023-11-21T13:32:46;20.23;;;15.10;;
5379;SDS011;2713;42.680;23.310;2023-11-21T13:35:16;24.50;;;16.87;;
5379;SDS011;2713;42.680;23.310;2023-11-21T13:37:52;25.57;;;17.47;;
5379;SDS011;2713;42.680;23.310;2023-11-21T13:40:21;28.27;;;19.33;;
5379;SDS011;2713;42.680;23.310;2023-11-21T13:42:52;28.13;;;20.00;;
5379;SDS011;2713;42.680;23.310;2023-11-21T13:45:20;31.43;;;20.43;;
5379;SDS011;2713;42.680;23.310;2023-11-21T13:47:49;29.83;;;20.63;;
5379;SDS011;2713;42.680;23.310;2023-11-21T13:50:23;31.43;;;22.50;;
5379;SDS011;2713;42.680;23.310;2023-11-21T13:52:57;31.20;;;22.77;;
5379;SDS011;2713;42.680;23.310;2023-11-21T13:55:28;35.83;;;22.30;;
5379;SDS011;2713;42.680;23.310;2023-11-21T13:57:55;31.23;;;22.50;;
5379;SDS011;2713;42.680;23.310;2023-11-21T14:00:22;29.10;;;23.87;;
5379;SDS011;2713;42.680;23.310;2023-11-21T14:03:06;30.97;;;23.20;;
5379;SDS011;2713;42.680;23.310;2023-11-21T14:05:41;35.20;;;26.20;;
5379;SDS011;2713;42.680;23.310;2023-11-21T14:08:09;33.40;;;24.60;;
5379;SDS011;2713;42.680;23.310;2023-11-21T14:10:39;40.30;;;25.80;;
5379;SDS011;2713;42.680;23.310;2023-11-21T14:13:08;34.40;;;25.70;;
5379;SDS011;2713;42.680;23.310;2023-11-21T14:15:38;39.10;;;25.50;;
5379;SDS011;2713;42.680;23.310;2023-11-21T14:18:08;38.17;;;25.60;;
5379;SDS011;2713;42.680;23.310;2023-11-21T14:20:37;43.03;;;32.70;;
5379;SDS011;2713;42.680;23.310;2023-11-21T14:23:05;41.53;;;26.50;;
5379;SDS011;2713;42.680;23.310;2023-11-21T14:25:34;33.40;;;24.63;;
5379;SDS011;2713;42.680;23.310;2023-11-21T14:28:02;34.50;;;25.50;;
5379;SDS011;2713;42.680;23.310;2023-11-21T14:30:29;37.00;;;25.20;;
5379;SDS011;2713;42.680;23.310;2023-11-21T14:32:58;41.57;;;28.10;;
5379;SDS011;2713;42.680;23.310;2023-11-21T14:35:26;38.60;;;27.00;;
5379;SDS011;2713;42.680;23.310;2023-11-21T14:37:55;41.50;;;27.70;;
5379;SDS011;2713;42.680;23.310;2023-11-21T14:40:23;38.30;;;26.17;;
5379;SDS011;2713;42.680;23.310;2023-11-21T14:42:52;42.47;;;28.10;;
5379;SDS011;2713;42.680;23.310;2023-11-21T14:45:21;40.80;;;27.30;;
5379;SDS011;2713;42.680;23.310;2023-11-21T14:47:51;40.27;;;27.03;;
5379;SDS011;2713;42.680;23.310;2023-11-21T14:50:25;36.67;;;26.57;;
5379;SDS011;2713;42.680;23.310;2023-11-21T14:53:18;37.63;;;27.53;;
5379;SDS011;2713;42.680;23.310;2023-11-21T14:56:05;41.70;;;26.93;;
5379;SDS011;2713;42.680;23.310;2023-11-21T14:58:34;37.70;;;28.00;;
5379;SDS011;2713;42.680;23.310;2023-11-21T15:01:03;37.43;;;26.87;;
5379;SDS011;2713;42.680;23.310;2023-11-21T15:03:29;41.33;;;27.00;;
5379;SDS011;2713;42.680;23.310;2023-11-21T15:06:09;39.50;;;27.40;;